Time;durP1;ratioP1;P1;durP2;ratioP2;P2;SDS_P1;SDS_P2;PMS_P1;PMS_P2;Temp;Humidity;BMP_temperature;BMP_pressure;BME280_temperature;BME280_humidity;BME280_pressure;Samples;Min_cycle;Max_cycle;Signal;HPM_P1;HPM_P2
2021/05/24 00:00:49;;;;;;;2.83;2.20;;;12.40;76.70;;;;;;3572722;40;20045;-68
2021/05/24 00:03:15;;;;;;;2.70;2.20;;;12.30;76.80;;;;;;3573860;40;20119;-70
2021/05/24 00:05:41;;;;;;;3.58;2.13;;;12.30;76.90;;;;;;3575573;40;20406;-69
2021/05/24 00:08:07;;;;;;;3.70;1.90;;;12.20;76.80;;;;;;3576862;40;20025;-71
2021/05/24 00:10:36;;;;;;;3.33;1.80;;;12.10;76.90;;;;;;3578070;40;20036;-70
2021/05/24 00:13:06;;;;;;;2.97;2.05;;;12.10;76.90;;;;;;3580001;40;20072;-71
2021/05/24 00:15:37;;;;;;;2.65;1.92;;;12.10;77.30;;;;;;3580331;40;20345;-72
2021/05/24 00:18:03;;;;;;;4.13;2.13;;;12.00;77.40;;;;;;3576711;40;20065;-70
2021/05/24 00:20:32;;;;;;;2.35;2.05;;;12.00;77.70;;;;;;3577901;40;20040;-72
2021/05/24 00:22:58;;;;;;;4.00;2.05;;;12.00;78.10;;;;;;3576465;40;20041;-71
2021/05/24 00:25:24;;;;;;;2.63;1.90;;;11.90;78.60;;;;;;3581595;40;20091;-72
2021/05/24 00:27:51;;;;;;;2.22;2.03;;;11.90;78.70;;;;;;3580255;40;20033;-70
2021/05/24 00:30:17;;;;;;;1.88;1.67;;;11.80;78.70;;;;;;3571176;40;20046;-72
2021/05/24 00:32:43;;;;;;;2.83;2.10;;;11.80;78.80;;;;;;3575347;40;20042;-71
2021/05/24 00:35:10;;;;;;;2.33;2.03;;;11.80;78.70;;;;;;3577937;40;20028;-72
2021/05/24 00:37:36;;;;;;;2.53;1.77;;;11.70;78.60;;;;;;3579522;40;20039;-71
2021/05/24 00:40:04;;;;;;;2.65;2.00;;;11.70;78.90;;;;;;3578763;40;20048;-66
2021/05/24 00:42:29;;;;;;;2.33;2.00;;;11.70;79.30;;;;;;3578750;40;20017;-70
2021/05/24 00:44:55;;;;;;;2.88;2.17;;;11.70;79.40;;;;;;3577004;40;20035;-70
2021/05/24 00:47:21;;;;;;;2.00;1.70;;;11.70;79.60;;;;;;3574942;40;20032;-71
2021/05/24 00:49:47;;;;;;;3.00;1.70;;;11.60;79.70;;;;;;3573310;40;20503;-75
2021/05/24 00:52:13;;;;;;;2.97;1.80;;;11.60;79.60;;;;;;3569721;40;20115;-70
2021/05/24 00:54:40;;;;;;;2.47;1.88;;;11.60;79.60;;;;;;3571800;40;20039;-72
2021/05/24 00:57:06;;;;;;;3.03;1.92;;;11.50;79.90;;;;;;3575624;40;20029;-71
2021/05/24 00:59:33;;;;;;;3.00;1.85;;;11.50;80.20;;;;;;3575925;40;20283;-71
2021/05/24 01:01:58;;;;;;;3.30;1.80;;;11.50;80.20;;;;;;3579465;40;20024;-72
2021/05/24 01:04:24;;;;;;;3.25;2.28;;;11.50;80.00;;;;;;3581829;40;20020;-71
2021/05/24 01:06:50;;;;;;;2.65;1.85;;;11.40;79.80;;;;;;3579438;40;20032;-71
2021/05/24 01:09:18;;;;;;;2.35;1.65;;;11.50;80.00;;;;;;3577335;40;20036;-71
2021/05/24 01:11:46;;;;;;;2.33;1.95;;;11.40;80.00;;;;;;3575497;40;20056;-70
2021/05/24 01:14:12;;;;;;;2.72;1.95;;;11.40;80.00;;;;;;3578487;40;20689;-71
2021/05/24 01:16:39;;;;;;;5.97;2.20;;;11.30;79.80;;;;;;3580267;40;20045;-71
2021/05/24 01:19:05;;;;;;;2.33;1.73;;;11.30;80.20;;;;;;3578325;40;20033;-71
2021/05/24 01:21:31;;;;;;;3.53;2.17;;;11.30;80.60;;;;;;3576502;40;20028;-73
2021/05/24 01:23:56;;;;;;;2.25;1.83;;;11.30;80.70;;;;;;3575056;40;20021;-73
2021/05/24 01:26:22;;;;;;;3.22;1.92;;;11.20;80.60;;;;;;3574142;40;20024;-72
2021/05/24 01:28:49;;;;;;;2.08;1.73;;;11.20;81.40;;;;;;3570914;40;20025;-71
2021/05/24 01:31:15;;;;;;;3.17;2.13;;;11.20;80.70;;;;;;3570428;40;20024;-71
2021/05/24 01:33:41;;;;;;;1.85;1.75;;;11.20;80.80;;;;;;3577129;40;20044;-71
2021/05/24 01:36:09;;;;;;;2.45;2.00;;;11.20;81.00;;;;;;3574599;39;20781;-71
2021/05/24 01:38:37;;;;;;;3.63;2.20;;;11.10;81.10;;;;;;3572977;40;20029;-69
2021/05/24 01:41:09;;;;;;;2.28;2.08;;;11.10;81.40;;;;;;3570990;40;20621;-72
2021/05/24 01:43:34;;;;;;;2.17;1.90;;;11.10;81.40;;;;;;3573688;40;20041;-70
2021/05/24 01:46:01;;;;;;;4.07;2.15;;;11.10;81.40;;;;;;3572250;40;20040;-72
2021/05/24 01:48:28;;;;;;;2.90;2.03;;;11.10;81.30;;;;;;3575478;40;20032;-70
2021/05/24 01:50:54;;;;;;;2.53;1.92;;;11.00;81.30;;;;;;3577238;40;20130;-69
2021/05/24 01:53:21;;;;;;;2.50;2.30;;;11.00;81.40;;;;;;3579779;40;20016;-68
2021/05/24 01:55:47;;;;;;;3.67;2.40;;;11.00;81.70;;;;;;3579762;40;20048;-69
2021/05/24 01:58:14;;;;;;;4.28;2.30;;;11.00;81.40;;;;;;3576984;40;20105;-68
2021/05/24 02:00:40;;;;;;;2.08;1.70;;;11.00;81.60;;;;;;3574665;40;20032;-67
2021/05/24 02:03:09;;;;;;;3.30;2.38;;;11.00;81.50;;;;;;3571472;40;20048;-70
2021/05/24 02:05:36;;;;;;;3.90;2.42;;;10.90;81.50;;;;;;3577319;40;20031;-69
2021/05/24 02:08:02;;;;;;;3.63;2.47;;;10.90;81.70;;;;;;3570798;40;20025;-71
2021/05/24 02:10:32;;;;;;;3.28;2.30;;;10.90;81.70;;;;;;3571465;40;20036;-71
2021/05/24 02:12:59;;;;;;;4.32;2.60;;;10.90;81.70;;;;;;3572279;40;20037;-70
2021/05/24 02:15:36;;;;;;;2.88;2.33;;;10.90;81.90;;;;;;3576655;40;20065;-69
2021/05/24 02:18:03;;;;;;;6.18;2.33;;;10.90;81.70;;;;;;3579604;40;20036;-73
2021/05/24 02:20:29;;;;;;;4.28;2.45;;;10.90;81.80;;;;;;3574587;40;20052;-70
2021/05/24 02:22:57;;;;;;;5.13;2.25;;;10.80;82.00;;;;;;3580404;40;20049;-71
2021/05/24 02:25:24;;;;;;;4.05;2.40;;;10.80;82.00;;;;;;3577720;40;20032;-71
2021/05/24 02:27:51;;;;;;;3.20;2.28;;;10.70;82.10;;;;;;3579118;40;20418;-69
2021/05/24 02:30:20;;;;;;;4.38;2.40;;;10.70;82.40;;;;;;3581237;40;20033;-70
2021/05/24 02:32:47;;;;;;;2.78;2.20;;;10.70;82.40;;;;;;3584158;40;20048;-70
2021/05/24 02:35:15;;;;;;;4.40;2.22;;;10.70;82.70;;;;;;3582285;40;20032;-70
2021/05/24 02:37:42;;;;;;;5.45;2.90;;;10.70;82.20;;;;;;3579090;40;20031;-71
2021/05/24 02:40:09;;;;;;;3.17;2.88;;;10.60;82.40;;;;;;3578056;40;20029;-71
2021/05/24 02:42:36;;;;;;;4.88;2.78;;;10.60;82.40;;;;;;3573968;40;20029;-70
2021/05/24 02:45:05;;;;;;;5.85;2.80;;;10.60;82.40;;;;;;3573861;40;20039;-70
2021/05/24 02:47:30;;;;;;;2.88;2.15;;;10.60;82.70;;;;;;3576325;40;20039;-70
2021/05/24 02:49:56;;;;;;;3.63;2.60;;;10.60;82.60;;;;;;3574179;40;20029;-70
2021/05/24 02:52:22;;;;;;;2.58;2.22;;;10.60;82.70;;;;;;3574524;40;20021;-70
2021/05/24 02:54:48;;;;;;;4.32;2.55;;;10.50;82.60;;;;;;3575619;40;20029;-70
2021/05/24 02:57:13;;;;;;;2.60;2.30;;;10.50;82.70;;;;;;3575300;40;20045;-70
2021/05/24 02:59:39;;;;;;;2.90;2.60;;;10.50;82.60;;;;;;3573332;40;20107;-70
2021/05/24 03:02:06;;;;;;;3.60;2.40;;;10.50;82.70;;;;;;3574726;40;20106;-70
2021/05/24 03:04:32;;;;;;;3.75;2.50;;;10.50;82.70;;;;;;3576089;40;20048;-70
2021/05/24 03:06:58;;;;;;;4.07;2.65;;;10.40;82.10;;;;;;3575443;39;20017;-70
2021/05/24 03:09:24;;;;;;;3.95;2.50;;;10.40;82.10;;;;;;3573592;40;20087;-70
2021/05/24 03:11:51;;;;;;;3.28;2.15;;;10.40;82.40;;;;;;3574844;40;20017;-70
2021/05/24 03:14:16;;;;;;;2.45;2.25;;;10.40;82.40;;;;;;3576880;40;20036;-70
2021/05/24 03:16:43;;;;;;;5.10;2.42;;;10.40;82.50;;;;;;3581327;40;20085;-70
2021/05/24 03:19:09;;;;;;;3.25;2.53;;;10.40;82.60;;;;;;3578371;40;20032;-70
2021/05/24 03:21:35;;;;;;;2.97;2.17;;;10.40;82.50;;;;;;3575403;40;20028;-68
2021/05/24 03:24:01;;;;;;;2.90;2.42;;;10.40;82.60;;;;;;3576315;40;20060;-70
2021/05/24 03:26:26;;;;;;;2.88;2.50;;;10.40;82.60;;;;;;3575096;40;20020;-68
2021/05/24 03:28:52;;;;;;;2.45;2.15;;;10.40;82.50;;;;;;3574402;40;20428;-69
2021/05/24 03:31:18;;;;;;;2.83;2.55;;;10.40;82.70;;;;;;3574446;40;20295;-69
2021/05/24 03:33:44;;;;;;;2.97;2.33;;;10.30;82.50;;;;;;3573707;40;20071;-68
2021/05/24 03:36:10;;;;;;;2.72;2.22;;;10.30;82.70;;;;;;3572814;40;20029;-69
2021/05/24 03:38:36;;;;;;;3.95;2.47;;;10.30;82.80;;;;;;3573754;40;20045;-68
2021/05/24 03:41:03;;;;;;;5.22;2.65;;;10.40;82.80;;;;;;3575239;40;20150;-68
2021/05/24 03:43:29;;;;;;;3.50;2.70;;;10.30;82.60;;;;;;3578015;40;20010;-69
2021/05/24 03:45:55;;;;;;;3.50;2.85;;;10.40;82.70;;;;;;3574580;40;20758;-68
2021/05/24 03:48:21;;;;;;;2.58;2.38;;;10.40;82.50;;;;;;3572820;40;20018;-68
2021/05/24 03:50:47;;;;;;;5.68;2.33;;;10.40;82.50;;;;;;3575268;40;20438;-68
2021/05/24 03:53:12;;;;;;;3.58;2.50;;;10.40;82.30;;;;;;3576386;40;20031;-69
2021/05/24 03:55:38;;;;;;;4.40;2.40;;;10.30;82.60;;;;;;3576489;40;20125;-68
2021/05/24 03:58:05;;;;;;;2.65;2.45;;;10.30;82.60;;;;;;3578680;40;20029;-68
2021/05/24 04:00:31;;;;;;;3.33;2.53;;;10.30;82.50;;;;;;3581104;40;20036;-68
2021/05/24 04:03:00;;;;;;;2.85;2.22;;;10.40;82.80;;;;;;3579440;40;20064;-68
2021/05/24 04:05:35;;;;;;;4.45;2.78;;;10.40;82.70;;;;;;3575638;40;20028;-68
2021/05/24 04:08:03;;;;;;;4.30;2.72;;;10.40;82.60;;;;;;3578149;40;20035;-68
2021/05/24 04:10:33;;;;;;;5.10;3.25;;;10.50;82.20;;;;;;3577728;40;20579;-67
2021/05/24 04:12:59;;;;;;;4.65;3.75;;;10.50;82.20;;;;;;3572978;40;20037;-68
2021/05/24 04:15:25;;;;;;;5.75;3.75;;;10.50;82.50;;;;;;3578916;40;20688;-68
2021/05/24 04:17:52;;;;;;;8.05;5.15;;;10.50;82.30;;;;;;3578025;40;20064;-68
2021/05/24 04:20:18;;;;;;;7.32;5.07;;;10.50;82.50;;;;;;3574592;40;20037;-68
2021/05/24 04:22:45;;;;;;;7.60;5.22;;;10.50;82.50;;;;;;3577259;40;20339;-68
2021/05/24 04:25:12;;;;;;;8.07;4.47;;;10.50;82.60;;;;;;3576354;40;20373;-68
2021/05/24 04:27:37;;;;;;;4.40;3.47;;;10.50;82.50;;;;;;3574184;40;20129;-68
2021/05/24 04:30:05;;;;;;;4.30;3.50;;;10.60;82.70;;;;;;3576459;40;20029;-67
2021/05/24 04:32:31;;;;;;;6.43;3.75;;;10.60;82.70;;;;;;3577303;39;20041;-68
2021/05/24 04:34:56;;;;;;;5.25;3.38;;;10.60;82.60;;;;;;3578969;40;20309;-68
2021/05/24 04:37:22;;;;;;;3.67;3.03;;;10.70;82.60;;;;;;3574857;40;20114;-68
2021/05/24 04:39:48;;;;;;;5.57;2.97;;;10.70;82.30;;;;;;3578474;40;20756;-69
2021/05/24 04:42:14;;;;;;;3.70;2.83;;;10.80;82.20;;;;;;3576441;40;20043;-68
2021/05/24 04:44:39;;;;;;;4.35;2.10;;;10.90;82.00;;;;;;3575820;40;20061;-68
2021/05/24 04:47:05;;;;;;;2.50;2.30;;;10.90;81.60;;;;;;3577761;40;20028;-69
2021/05/24 04:49:31;;;;;;;2.83;2.40;;;11.00;81.60;;;;;;3578185;40;20041;-68
2021/05/24 04:52:01;;;;;;;5.50;2.10;;;11.00;81.70;;;;;;3578450;40;20032;-68
2021/05/24 04:54:28;;;;;;;3.13;1.90;;;11.10;81.90;;;;;;3574843;40;20040;-69
2021/05/24 04:56:54;;;;;;;2.85;2.00;;;11.20;81.80;;;;;;3576634;40;20032;-68
2021/05/24 04:59:20;;;;;;;3.85;2.08;;;11.30;81.80;;;;;;3574994;40;20454;-68
2021/05/24 05:01:49;;;;;;;3.15;1.92;;;11.30;81.60;;;;;;3577833;40;20028;-68
2021/05/24 05:04:18;;;;;;;2.78;1.98;;;11.40;81.50;;;;;;3575061;40;20040;-69
2021/05/24 05:06:44;;;;;;;2.15;1.80;;;11.40;81.30;;;;;;3579776;40;20029;-69
2021/05/24 05:09:10;;;;;;;2.88;2.00;;;11.50;81.20;;;;;;3576879;40;20029;-68
2021/05/24 05:11:36;;;;;;;2.10;1.90;;;11.60;81.00;;;;;;3574699;40;20029;-69
2021/05/24 05:14:03;;;;;;;3.70;1.98;;;11.80;80.20;;;;;;3581194;40;20045;-69
2021/05/24 05:16:29;;;;;;;2.55;1.80;;;12.00;78.00;;;;;;3580175;40;20033;-69
2021/05/24 05:18:55;;;;;;;2.15;1.45;;;12.10;77.00;;;;;;3576109;40;20031;-69
2021/05/24 05:21:21;;;;;;;1.85;1.40;;;12.50;76.10;;;;;;3575676;40;20041;-69
2021/05/24 05:23:46;;;;;;;1.77;1.27;;;12.90;75.00;;;;;;3576110;40;20118;-69
2021/05/24 05:26:12;;;;;;;1.92;1.60;;;13.50;72.80;;;;;;3580108;40;20475;-70
2021/05/24 05:28:39;;;;;;;1.70;1.10;;;14.00;70.50;;;;;;3571195;40;20052;-69
2021/05/24 05:31:05;;;;;;;1.60;1.30;;;14.40;69.30;;;;;;3577180;40;20037;-69
2021/05/24 05:33:31;;;;;;;3.03;1.20;;;14.70;67.60;;;;;;3575681;40;20045;-69
2021/05/24 05:35:58;;;;;;;2.22;1.15;;;15.00;66.30;;;;;;3576211;40;20024;-70
2021/05/24 05:38:25;;;;;;;1.30;1.05;;;15.20;64.70;;;;;;3572453;40;20037;-68
2021/05/24 05:40:52;;;;;;;4.30;1.20;;;15.30;64.80;;;;;;3573375;40;20028;-69
2021/05/24 05:43:18;;;;;;;1.70;1.10;;;15.70;62.90;;;;;;3572497;40;20041;-69
2021/05/24 05:45:45;;;;;;;3.70;1.10;;;15.80;62.30;;;;;;3573751;40;20049;-69
2021/05/24 05:48:11;;;;;;;1.88;1.08;;;16.00;61.60;;;;;;3577298;40;20028;-68
2021/05/24 05:50:36;;;;;;;2.00;1.00;;;16.30;59.20;;;;;;3574343;40;20754;-69
2021/05/24 05:53:03;;;;;;;1.40;1.17;;;16.60;59.20;;;;;;3574111;39;20028;-69
2021/05/24 05:55:28;;;;;;;2.65;1.00;;;16.80;58.50;;;;;;3573562;40;20021;-72
2021/05/24 05:57:54;;;;;;;2.13;1.20;;;16.80;58.40;;;;;;3576572;40;20065;-70
2021/05/24 06:00:20;;;;;;;4.07;1.13;;;17.00;57.20;;;;;;3575473;40;20029;-70
2021/05/24 06:02:46;;;;;;;3.15;1.15;;;17.10;57.20;;;;;;3574457;40;20033;-70
2021/05/24 06:05:12;;;;;;;1.13;0.90;;;17.20;56.90;;;;;;3574777;40;20033;-69
2021/05/24 06:07:39;;;;;;;1.35;1.00;;;17.30;56.00;;;;;;3574431;40;20029;-67
2021/05/24 06:10:05;;;;;;;2.40;1.00;;;17.30;55.60;;;;;;3573995;40;20033;-69
2021/05/24 06:12:31;;;;;;;1.33;0.85;;;17.50;55.40;;;;;;3575647;40;20028;-69
2021/05/24 06:14:57;;;;;;;1.35;0.95;;;17.50;55.40;;;;;;3573379;40;20039;-73
2021/05/24 06:17:24;;;;;;;1.90;1.00;;;17.30;55.60;;;;;;3579410;40;20707;-69
2021/05/24 06:19:50;;;;;;;1.15;0.90;;;17.30;55.20;;;;;;3576154;40;20037;-69
2021/05/24 06:22:16;;;;;;;1.42;1.00;;;17.10;56.20;;;;;;3573685;40;20040;-68
2021/05/24 06:24:41;;;;;;;2.28;1.10;;;17.00;56.40;;;;;;3576619;40;20380;-69
2021/05/24 06:27:07;;;;;;;2.25;1.00;;;16.90;55.90;;;;;;3574239;40;20041;-68
2021/05/24 06:29:33;;;;;;;2.88;0.93;;;16.80;56.70;;;;;;3572523;40;20029;-69
2021/05/24 06:31:59;;;;;;;1.23;0.85;;;16.90;56.20;;;;;;3573286;40;20040;-70
2021/05/24 06:34:25;;;;;;;4.63;2.80;;;16.80;56.80;;;;;;3574958;40;20041;-70
2021/05/24 06:36:51;;;;;;;1.20;0.98;;;16.80;57.20;;;;;;3573263;40;20029;-70
2021/05/24 06:39:18;;;;;;;0.82;0.77;;;16.80;56.50;;;;;;3575280;40;20512;-71
2021/05/24 06:41:44;;;;;;;1.52;0.98;;;16.80;56.80;;;;;;3576124;40;20028;-71
2021/05/24 06:44:10;;;;;;;1.65;0.93;;;16.80;57.30;;;;;;3574287;40;20447;-71
2021/05/24 06:46:36;;;;;;;0.52;0.52;;;16.90;57.40;;;;;;3575319;40;20021;-72
2021/05/24 06:49:03;;;;;;;0.70;0.70;;;16.90;58.20;;;;;;3576876;40;20310;-71
2021/05/24 06:51:28;;;;;;;2.17;0.85;;;16.90;58.00;;;;;;3575160;40;20069;-72
2021/05/24 06:53:54;;;;;;;1.83;0.88;;;17.00;58.10;;;;;;3574192;40;20029;-74
2021/05/24 06:56:21;;;;;;;2.40;1.02;;;17.10;57.00;;;;;;3580888;40;20040;-73
2021/05/24 06:58:46;;;;;;;2.08;0.90;;;17.10;56.60;;;;;;3578210;40;20035;-75
2021/05/24 07:01:12;;;;;;;2.45;0.90;;;17.10;57.00;;;;;;3577027;40;20036;-70
2021/05/24 07:03:38;;;;;;;1.45;0.82;;;17.20;57.90;;;;;;3574478;40;20021;-72
2021/05/24 07:06:04;;;;;;;1.13;0.80;;;17.30;57.20;;;;;;3575157;40;20021;-75
2021/05/24 07:08:30;;;;;;;2.92;0.75;;;17.50;56.40;;;;;;3575888;40;20036;-75
2021/05/24 07:10:56;;;;;;;0.95;0.75;;;17.70;54.90;;;;;;3574537;40;20943;-70
2021/05/24 07:13:22;;;;;;;0.73;0.60;;;17.70;55.50;;;;;;3575297;40;20839;-69
2021/05/24 07:15:47;;;;;;;0.98;0.50;;;17.80;54.60;;;;;;3575128;40;20130;-75
2021/05/24 07:18:13;;;;;;;0.98;0.68;;;17.90;54.10;;;;;;3572877;40;20111;-72
2021/05/24 07:20:39;;;;;;;1.77;0.90;;;18.00;53.30;;;;;;3571084;40;20761;-71
2021/05/24 07:23:05;;;;;;;2.85;0.73;;;18.00;53.80;;;;;;3573632;40;20041;-71
2021/05/24 07:25:31;;;;;;;1.42;0.63;;;18.10;53.60;;;;;;3575769;40;20379;-78
2021/05/24 07:27:57;;;;;;;0.60;0.50;;;18.10;53.30;;;;;;3573229;40;20029;-75
2021/05/24 07:30:23;;;;;;;3.72;0.70;;;18.10;53.00;;;;;;3575882;40;20051;-68
2021/05/24 07:32:48;;;;;;;2.47;0.70;;;18.20;54.50;;;;;;3580907;40;20033;-72
2021/05/24 07:35:14;;;;;;;0.77;0.68;;;18.30;53.00;;;;;;3577436;40;20044;-72
2021/05/24 07:37:40;;;;;;;2.47;0.60;;;18.30;52.60;;;;;;3576961;40;20480;-74
2021/05/24 07:40:08;;;;;;;0.95;0.65;;;18.30;53.20;;;;;;3577074;40;20052;-76
2021/05/24 07:42:34;;;;;;;2.92;0.70;;;18.40;53.30;;;;;;3579115;40;20065;-73
2021/05/24 07:45:00;;;;;;;2.40;0.80;;;18.50;52.70;;;;;;3571457;40;20516;-72
2021/05/24 07:47:26;;;;;;;0.73;0.57;;;18.60;52.90;;;;;;3579935;40;20409;-73
2021/05/24 07:49:52;;;;;;;2.28;0.77;;;18.60;53.60;;;;;;3576528;39;20040;-70
2021/05/24 07:52:17;;;;;;;2.42;0.85;;;18.70;51.80;;;;;;3574842;40;20051;-71
2021/05/24 07:54:44;;;;;;;1.42;0.60;;;18.70;51.10;;;;;;3575433;40;20045;-71
2021/05/24 07:57:10;;;;;;;4.93;0.60;;;18.80;50.60;;;;;;3577526;40;20823;-73
2021/05/24 07:59:35;;;;;;;1.30;0.60;;;18.90;50.60;;;;;;3575360;40;20044;-75
2021/05/24 08:02:02;;;;;;;0.95;0.77;;;18.90;50.30;;;;;;3577505;39;20419;-76
2021/05/24 08:04:29;;;;;;;0.90;0.90;;;18.90;51.20;;;;;;3575359;40;20060;-73
2021/05/24 08:06:55;;;;;;;1.00;0.47;;;19.00;50.90;;;;;;3574551;40;20037;-75
2021/05/24 08:09:21;;;;;;;1.40;0.55;;;19.20;50.10;;;;;;3579656;40;20500;-74
2021/05/24 08:11:47;;;;;;;1.13;0.63;;;19.20;50.90;;;;;;3575174;40;20125;-73
2021/05/24 08:14:16;;;;;;;0.68;0.50;;;19.30;49.90;;;;;;3578332;40;20795;-74
2021/05/24 08:16:45;;;;;;;3.58;0.57;;;19.30;49.70;;;;;;3576153;40;20021;-74
2021/05/24 08:19:11;;;;;;;1.83;0.65;;;19.40;49.90;;;;;;3576334;40;20134;-74
2021/05/24 08:21:46;;;;;;;1.80;0.30;;;19.40;49.70;;;;;;3577042;40;20044;-68
2021/05/24 08:24:13;;;;;;;0.88;0.45;;;19.50;49.90;;;;;;3571346;40;20048;-67
2021/05/24 08:26:39;;;;;;;2.42;0.80;;;19.60;48.30;;;;;;3574505;40;20040;-74
2021/05/24 08:29:06;;;;;;;1.23;0.60;;;19.60;49.30;;;;;;3577077;40;20022;-74
2021/05/24 08:31:33;;;;;;;0.30;0.30;;;19.70;49.00;;;;;;3575474;40;20083;-73
2021/05/24 08:33:59;;;;;;;0.73;0.45;;;19.80;47.40;;;;;;3577957;40;20051;-74
2021/05/24 08:36:25;;;;;;;1.73;0.73;;;19.90;46.90;;;;;;3575041;40;20065;-72
2021/05/24 08:38:51;;;;;;;1.95;0.60;;;19.90;48.30;;;;;;3575932;40;20034;-75
2021/05/24 08:41:18;;;;;;;0.32;0.20;;;20.10;48.20;;;;;;3572870;40;20342;-75
2021/05/24 08:43:44;;;;;;;0.63;0.50;;;20.30;46.40;;;;;;3576430;40;20326;-73
2021/05/24 08:46:09;;;;;;;1.65;0.60;;;20.50;45.50;;;;;;3573289;40;20052;-74
2021/05/24 08:48:36;;;;;;;1.90;0.50;;;20.60;44.80;;;;;;3577049;40;20088;-73
2021/05/24 08:51:05;;;;;;;2.30;0.63;;;20.70;44.60;;;;;;3579828;40;20076;-73
2021/05/24 08:53:31;;;;;;;2.53;0.55;;;20.60;44.10;;;;;;3574195;40;20125;-76
2021/05/24 08:55:57;;;;;;;2.15;0.30;;;20.60;44.40;;;;;;3577875;40;20045;-73
2021/05/24 08:58:24;;;;;;;2.05;0.98;;;20.60;44.00;;;;;;3577311;40;20426;-72
2021/05/24 09:00:50;;;;;;;1.08;0.50;;;20.60;44.10;;;;;;3576281;40;20060;-73
2021/05/24 09:03:26;;;;;;;2.70;0.63;;;20.60;44.30;;;;;;3577579;40;20032;-73
2021/05/24 09:05:53;;;;;;;4.00;1.10;;;20.50;43.80;;;;;;3576977;40;20029;-73
2021/05/24 09:08:32;;;;;;;0.75;0.60;;;20.50;43.20;;;;;;3576290;40;20036;-72
2021/05/24 09:10:58;;;;;;;3.13;0.40;;;20.40;44.00;;;;;;3578804;40;20044;-73
2021/05/24 09:13:27;;;;;;;0.60;0.30;;;20.30;42.90;;;;;;3571256;40;20033;-74
2021/05/24 09:15:52;;;;;;;0.52;0.38;;;20.20;43.30;;;;;;3575314;40;20025;-74
2021/05/24 09:18:19;;;;;;;1.00;0.68;;;20.20;43.90;;;;;;3573866;40;20033;-72
2021/05/24 09:20:50;;;;;;;0.47;0.40;;;20.20;43.40;;;;;;3572941;40;20437;-73
2021/05/24 09:23:24;;;;;;;1.35;0.45;;;20.30;43.50;;;;;;3574476;40;20125;-73
2021/05/24 09:26:09;;;;;;;1.15;0.30;;;20.50;43.70;;;;;;3571625;40;20175;-72
2021/05/24 09:28:44;;;;;;;1.30;0.43;;;20.70;44.10;;;;;;3577318;40;20029;-72
2021/05/24 09:31:23;;;;;;;1.30;0.50;;;21.00;42.30;;;;;;3568001;40;20649;-76
2021/05/24 09:33:53;;;;;;;0.98;0.50;;;21.20;41.00;;;;;;3575864;40;20122;-73
2021/05/24 09:36:19;;;;;;;2.20;0.47;;;21.30;40.40;;;;;;3574621;40;20052;-73
2021/05/24 09:38:47;;;;;;;1.45;0.60;;;21.40;40.20;;;;;;3574499;40;20035;-71
2021/05/24 09:41:15;;;;;;;2.20;0.60;;;21.50;42.20;;;;;;3575659;40;20040;-70
2021/05/24 09:43:50;;;;;;;3.75;1.20;;;21.40;40.20;;;;;;3573394;40;20032;-71
2021/05/24 09:46:28;;;;;;;1.30;0.80;;;21.20;42.40;;;;;;3576641;40;20040;-69
2021/05/24 09:49:02;;;;;;;1.65;1.33;;;21.20;41.80;;;;;;3579955;40;20060;-69
2021/05/24 09:51:38;;;;;;;5.93;1.60;;;21.20;43.10;;;;;;3572625;40;20326;-69
2021/05/24 09:54:05;;;;;;;1.88;1.10;;;21.20;43.00;;;;;;3578230;40;20044;-70
2021/05/24 09:56:38;;;;;;;0.50;0.43;;;21.30;43.00;;;;;;3576629;40;20043;-73
2021/05/24 09:59:10;;;;;;;5.13;0.98;;;21.40;41.60;;;;;;3577574;40;20032;-69
2021/05/24 10:01:40;;;;;;;2.90;1.30;;;21.60;40.70;;;;;;3575263;40;20122;-69
2021/05/24 10:04:07;;;;;;;0.30;0.30;;;21.60;40.90;;;;;;3580622;40;20025;-70
2021/05/24 10:06:34;;;;;;;3.15;1.50;;;21.40;40.00;;;;;;3573875;40;20514;-70
2021/05/24 10:09:01;;;;;;;0.57;0.57;;;21.50;41.40;;;;;;3576900;40;20065;-70
2021/05/24 10:11:29;;;;;;;5.40;1.27;;;21.60;41.20;;;;;;3577614;40;20083;-68
2021/05/24 10:13:55;;;;;;;3.20;1.05;;;21.80;40.30;;;;;;3574661;40;20032;-69
2021/05/24 10:16:21;;;;;;;2.63;1.65;;;21.80;40.70;;;;;;3581669;40;20476;-68
2021/05/24 10:18:47;;;;;;;2.28;0.98;;;21.70;38.90;;;;;;3578403;40;20020;-71
2021/05/24 10:21:14;;;;;;;2.13;0.95;;;21.60;38.70;;;;;;3575659;40;20033;-67
2021/05/24 10:23:40;;;;;;;3.30;0.50;;;21.40;38.10;;;;;;3577814;40;20017;-68
2021/05/24 10:26:08;;;;;;;1.85;0.50;;;21.40;39.60;;;;;;3573603;40;20029;-68
2021/05/24 10:28:34;;;;;;;0.80;0.52;;;21.40;38.40;;;;;;3563248;40;20021;-70
2021/05/24 10:31:02;;;;;;;0.70;0.40;;;21.40;39.90;;;;;;3574282;40;20117;-68
2021/05/24 10:33:38;;;;;;;1.85;0.52;;;21.20;37.90;;;;;;3577211;40;20314;-68
2021/05/24 10:36:22;;;;;;;0.63;0.30;;;21.30;37.90;;;;;;3577712;40;20016;-68
2021/05/24 10:39:14;;;;;;;1.65;0.60;;;21.50;37.00;;;;;;3574644;40;20386;-67
2021/05/24 10:41:55;;;;;;;1.05;0.40;;;21.50;37.90;;;;;;3573966;40;20032;-69
2021/05/24 10:44:34;;;;;;;2.58;0.50;;;21.70;36.70;;;;;;3572462;40;20072;-69
2021/05/24 10:47:14;;;;;;;3.10;0.77;;;22.00;37.80;;;;;;3577916;39;20724;-67
2021/05/24 10:49:52;;;;;;;3.80;0.70;;;22.10;37.70;;;;;;3574122;40;20419;-67
2021/05/24 10:52:18;;;;;;;0.98;0.43;;;22.00;39.10;;;;;;3581321;40;20430;-67
2021/05/24 10:54:44;;;;;;;0.55;0.25;;;21.90;38.60;;;;;;3580689;40;20039;-67
2021/05/24 10:57:13;;;;;;;1.17;0.63;;;21.70;35.50;;;;;;3576857;40;20052;-68
2021/05/24 10:59:48;;;;;;;1.33;0.50;;;21.70;36.40;;;;;;3575755;40;20033;-67
2021/05/24 11:02:23;;;;;;;0.57;0.38;;;21.90;37.30;;;;;;3576714;40;20032;-67
2021/05/24 11:05:09;;;;;;;1.33;0.57;;;22.00;35.40;;;;;;3572328;40;20037;-67
2021/05/24 11:07:42;;;;;;;1.90;0.40;;;22.00;36.40;;;;;;3579635;40;20035;-67
2021/05/24 11:10:17;;;;;;;2.03;0.30;;;22.00;35.00;;;;;;3578839;40;20037;-68
2021/05/24 11:12:43;;;;;;;1.03;0.50;;;21.90;34.20;;;;;;3583538;40;20038;-69
2021/05/24 11:15:14;;;;;;;5.93;0.43;;;21.90;35.20;;;;;;3576851;40;20045;-68
2021/05/24 11:18:02;;;;;;;1.20;0.77;;;21.80;35.90;;;;;;3582484;40;20025;-67
2021/05/24 11:20:57;;;;;;;1.00;0.30;;;21.90;36.60;;;;;;3570458;40;20037;-70
2021/05/24 11:26:23;;;;;;;6.78;0.85;;;21.90;34.30;;;;;;3577095;40;20029;-69
2021/05/24 11:29:13;;;;;;;1.45;0.50;;;22.00;34.70;;;;;;3573552;40;20025;-69
2021/05/24 11:31:40;;;;;;;1.10;0.30;;;22.00;35.60;;;;;;3578352;40;20124;-69
2021/05/24 11:34:08;;;;;;;0.75;0.45;;;22.00;34.90;;;;;;3578058;40;20036;-69
2021/05/24 11:36:39;;;;;;;0.25;0.25;;;21.90;34.40;;;;;;3574829;40;20037;-69
2021/05/24 11:39:15;;;;;;;3.05;0.50;;;21.90;36.60;;;;;;3575485;40;20056;-69
2021/05/24 11:41:52;;;;;;;;;;;21.90;37.30;;;;;;3577051;40;20094;-69
2021/05/24 11:44:20;;;;;;;0.75;0.52;;;21.90;35.30;;;;;;3570902;40;19939;-68
2021/05/24 11:46:57;;;;;;;2.63;0.70;;;21.70;35.20;;;;;;3574549;40;20102;-69
2021/05/24 11:49:36;;;;;;;2.65;0.40;;;21.70;36.20;;;;;;3576381;40;20041;-70
2021/05/24 11:52:04;;;;;;;1.63;0.40;;;21.80;37.20;;;;;;3575461;40;20130;-67
2021/05/24 11:54:30;;;;;;;0.40;0.40;;;22.00;36.50;;;;;;3581490;40;20021;-68
2021/05/24 11:56:59;;;;;;;1.45;0.40;;;22.10;35.00;;;;;;3577518;40;20021;-67
2021/05/24 11:59:26;;;;;;;0.73;0.35;;;22.20;36.20;;;;;;3574063;40;20052;-69
2021/05/24 12:01:54;;;;;;;0.90;0.43;;;22.10;36.20;;;;;;3577463;40;20020;-69
2021/05/24 12:04:22;;;;;;;2.20;0.52;;;22.00;34.70;;;;;;3576679;40;20947;-69
2021/05/24 12:07:11;;;;;;;1.75;0.40;;;22.10;35.40;;;;;;3580166;40;20044;-69
2021/05/24 12:09:40;;;;;;;1.92;0.95;;;22.00;35.60;;;;;;3573355;40;20048;-69
2021/05/24 12:12:09;;;;;;;1.63;0.70;;;22.10;35.40;;;;;;3574908;40;20746;-68
2021/05/24 12:14:36;;;;;;;1.98;0.88;;;22.10;35.60;;;;;;3576011;40;20150;-69
2021/05/24 12:17:17;;;;;;;2.67;1.85;;;22.10;36.70;;;;;;3570971;40;20052;-68
2021/05/24 12:19:44;;;;;;;0.90;0.30;;;22.20;37.00;;;;;;3572533;40;20048;-66
2021/05/24 12:22:13;;;;;;;1.00;0.47;;;22.20;36.20;;;;;;3576349;40;20032;-67
2021/05/24 12:24:43;;;;;;;0.32;0.32;;;22.20;37.40;;;;;;3575449;40;20020;-69
2021/05/24 12:27:11;;;;;;;0.50;0.50;;;22.40;36.60;;;;;;3576388;40;20029;-69
2021/05/24 12:30:07;;;;;;;1.27;0.40;;;22.50;35.50;;;;;;3573945;40;20041;-69
2021/05/24 12:32:39;;;;;;;3.13;0.50;;;22.50;35.60;;;;;;3573326;40;20104;-69
2021/05/24 12:35:11;;;;;;;1.73;0.60;;;22.50;35.40;;;;;;3581003;40;20040;-68
2021/05/24 12:37:39;;;;;;;0.43;0.30;;;22.40;36.00;;;;;;3577769;40;20033;-69
2021/05/24 12:40:07;;;;;;;1.13;0.43;;;22.40;35.50;;;;;;3576179;40;20033;-68
2021/05/24 12:42:34;;;;;;;1.83;0.50;;;22.50;35.70;;;;;;3574832;40;20036;-69
2021/05/24 12:45:06;;;;;;;1.15;0.60;;;22.50;36.70;;;;;;3578379;40;20101;-69
2021/05/24 12:47:32;;;;;;;2.30;0.88;;;22.70;36.90;;;;;;3577253;40;20157;-69
2021/05/24 12:50:15;;;;;;;2.60;1.33;;;22.80;36.30;;;;;;3572305;40;20060;-68
2021/05/24 12:52:42;;;;;;;2.38;0.68;;;22.80;35.60;;;;;;3576728;40;20500;-69
2021/05/24 12:55:16;;;;;;;0.40;0.40;;;23.00;36.60;;;;;;3574077;40;20033;-69